createdAt,value
2018-12-27T00:01:15.982Z,15.73
2018-12-27T00:03:44.971Z,17.93
2018-12-27T00:06:13.939Z,15.97
2018-12-27T00:08:43.023Z,15.10
2018-12-27T00:11:11.996Z,17.23
2018-12-27T00:13:40.987Z,16.37
2018-12-27T00:16:10.077Z,17.43
2018-12-27T00:18:39.051Z,17.53
2018-12-27T00:21:08.654Z,17.57
2018-12-27T00:23:37.639Z,17.10
2018-12-27T00:26:06.694Z,18.77
2018-12-27T00:28:35.690Z,16.77
2018-12-27T00:31:04.799Z,16.93
2018-12-27T00:33:33.946Z,18.73
2018-12-27T00:36:03.064Z,22.47
2018-12-27T00:38:32.198Z,18.27
2018-12-27T00:41:01.331Z,19.73
2018-12-27T00:43:30.477Z,17.47
2018-12-27T00:45:59.602Z,15.50
2018-12-27T00:48:28.747Z,16.37
2018-12-27T00:50:57.869Z,18.10
2018-12-27T00:53:27.014Z,16.83
2018-12-27T00:55:56.134Z,20.13
2018-12-27T00:58:25.278Z,18.87
2018-12-27T01:00:54.397Z,18.43
2018-12-27T01:03:23.534Z,17.53
2018-12-27T01:05:52.685Z,17.13
2018-12-27T01:08:21.819Z,16.47
2018-12-27T01:10:50.948Z,16.80
2018-12-27T01:13:20.086Z,15.83
2018-12-27T01:15:49.214Z,15.70
2018-12-27T01:18:18.369Z,19.13
2018-12-27T01:20:47.562Z,17.73
2018-12-27T01:23:16.704Z,17.13
2018-12-27T01:25:45.842Z,17.53
2018-12-27T01:28:14.986Z,16.80
2018-12-27T01:30:44.135Z,16.37
2018-12-27T01:33:18.731Z,17.03
2018-12-27T01:35:44.095Z,18.17
2018-12-27T01:38:13.616Z,16.53
2018-12-27T01:40:42.734Z,18.33
2018-12-27T01:43:11.856Z,17.23
2018-12-27T01:45:40.994Z,19.63
2018-12-27T01:48:10.126Z,21.57
2018-12-27T01:50:39.271Z,19.03
2018-12-27T01:53:08.395Z,18.43
2018-12-27T01:55:37.522Z,18.37
2018-12-27T01:58:06.646Z,17.30
2018-12-27T02:00:35.782Z,16.80
2018-12-27T02:03:04.902Z,16.90
2018-12-27T02:05:34.045Z,18.33
2018-12-27T02:08:03.180Z,18.83
2018-12-27T02:10:32.333Z,17.33
2018-12-27T02:13:01.459Z,16.97
2018-12-27T02:15:30.596Z,17.50
2018-12-27T02:17:59.727Z,18.20
2018-12-27T02:20:28.863Z,18.87
2018-12-27T02:22:57.995Z,18.30
2018-12-27T02:25:27.133Z,17.17
2018-12-27T02:27:56.255Z,16.87
2018-12-27T02:30:25.404Z,16.83
2018-12-27T02:32:54.514Z,19.27
2018-12-27T02:35:23.667Z,16.83
2018-12-27T02:37:52.796Z,18.20
2018-12-27T02:40:21.935Z,16.93
2018-12-27T02:42:51.140Z,17.80
2018-12-27T02:45:20.283Z,17.60
2018-12-27T02:47:49.403Z,17.13
2018-12-27T02:50:18.547Z,16.53
2018-12-27T02:52:47.662Z,17.97
2018-12-27T02:55:16.807Z,18.03
2018-12-27T02:57:45.936Z,18.07
2018-12-27T03:00:15.075Z,16.17
2018-12-27T03:02:44.215Z,15.90
2018-12-27T03:05:13.359Z,17.03
2018-12-27T03:07:42.473Z,15.13
2018-12-27T03:10:11.624Z,15.40
2018-12-27T03:12:40.753Z,17.13
2018-12-27T03:15:09.890Z,16.83
2018-12-27T03:17:39.006Z,15.67
2018-12-27T03:20:08.151Z,18.87
2018-12-27T03:22:37.267Z,17.33
2018-12-27T03:25:06.403Z,17.83
2018-12-27T03:27:35.519Z,16.10
2018-12-27T03:30:04.667Z,15.87
2018-12-27T03:32:33.813Z,16.97
2018-12-27T03:35:02.999Z,17.97
2018-12-27T03:37:32.130Z,18.23
2018-12-27T03:40:01.278Z,19.57
2018-12-27T03:42:30.399Z,20.43
2018-12-27T03:44:59.541Z,18.13
2018-12-27T03:47:28.670Z,20.77
2018-12-27T03:49:57.811Z,19.83
2018-12-27T03:52:26.942Z,20.63
2018-12-27T03:54:56.079Z,20.60
2018-12-27T03:57:25.215Z,19.00
2018-12-27T03:59:54.358Z,21.27
2018-12-27T04:02:23.500Z,18.90
2018-12-27T04:04:52.623Z,18.77
2018-12-27T04:07:21.762Z,20.10
2018-12-27T04:09:50.897Z,17.33
2018-12-27T04:12:20.036Z,17.60
2018-12-27T04:14:49.158Z,18.07
2018-12-27T04:17:18.142Z,18.07
2018-12-27T04:19:47.110Z,16.87
2018-12-27T04:22:16.156Z,17.97
2018-12-27T04:24:45.267Z,19.60
2018-12-27T04:27:14.275Z,16.50
2018-12-27T04:29:43.234Z,16.97
2018-12-27T04:32:12.295Z,16.63
2018-12-27T04:34:41.601Z,18.07
2018-12-27T04:37:10.663Z,17.23
2018-12-27T04:39:39.630Z,16.20
2018-12-27T04:42:08.831Z,16.37
2018-12-27T04:44:38.155Z,17.00
2018-12-27T04:47:07.136Z,17.87
2018-12-27T04:49:36.104Z,16.40
2018-12-27T04:52:05.076Z,18.23
2018-12-27T04:54:34.035Z,20.23
2018-12-27T04:57:03.016Z,16.33
2018-12-27T04:59:31.985Z,16.30
2018-12-27T05:02:00.969Z,16.40
2018-12-27T05:04:29.934Z,17.10
2018-12-27T05:06:58.919Z,16.37
2018-12-27T05:09:27.884Z,17.80
2018-12-27T05:11:56.867Z,18.17
2018-12-27T05:14:25.851Z,15.17
2018-12-27T05:16:54.827Z,17.10
2018-12-27T05:19:23.802Z,16.00
2018-12-27T05:21:52.771Z,17.20
2018-12-27T05:24:21.747Z,17.03
2018-12-27T05:26:50.746Z,16.93
2018-12-27T05:29:19.720Z,16.43
2018-12-27T05:31:48.702Z,15.97
2018-12-27T05:34:17.668Z,17.03
2018-12-27T05:36:46.646Z,17.33
2018-12-27T05:39:15.617Z,18.30
2018-12-27T05:41:44.605Z,18.60
2018-12-27T05:44:13.574Z,17.10
2018-12-27T05:46:42.555Z,17.33
2018-12-27T05:49:11.518Z,17.23
2018-12-27T05:51:40.501Z,17.10
2018-12-27T05:54:09.466Z,18.00
2018-12-27T05:56:38.455Z,18.17
2018-12-27T05:59:07.422Z,18.40
2018-12-27T06:01:36.407Z,17.87
2018-12-27T06:04:05.384Z,17.70
2018-12-27T06:06:34.362Z,16.73
2018-12-27T06:09:04.673Z,16.93
2018-12-27T06:11:33.667Z,17.23
2018-12-27T06:14:02.630Z,17.97
2018-12-27T06:16:31.621Z,19.83
2018-12-27T06:19:00.592Z,17.30
2018-12-27T06:21:29.567Z,17.33
2018-12-27T06:23:58.595Z,18.73
2018-12-27T06:26:27.562Z,16.50
2018-12-27T06:28:56.631Z,17.70
2018-12-27T06:31:25.590Z,16.60
2018-12-27T06:33:54.583Z,17.23
2018-12-27T06:36:23.552Z,16.87
2018-12-27T06:38:52.530Z,16.43
2018-12-27T06:41:21.498Z,17.80
2018-12-27T06:43:50.482Z,16.90
2018-12-27T06:46:19.448Z,17.70
2018-12-27T06:48:48.454Z,17.70
2018-12-27T06:51:17.420Z,18.03
2018-12-27T06:53:46.499Z,17.53
2018-12-27T06:56:15.468Z,17.07
2018-12-27T06:58:44.482Z,17.17
2018-12-27T07:01:13.447Z,16.73
2018-12-27T07:03:42.431Z,18.67
2018-12-27T07:06:11.473Z,19.40
2018-12-27T07:08:40.461Z,16.57
2018-12-27T07:11:09.438Z,20.47
2018-12-27T07:13:38.415Z,17.10
2018-12-27T07:16:07.388Z,18.50
2018-12-27T07:18:36.378Z,20.40
2018-12-27T07:21:05.346Z,17.70
2018-12-27T07:23:34.331Z,18.13
2018-12-27T07:26:03.294Z,17.80
2018-12-27T07:28:32.280Z,18.20
2018-12-27T07:31:01.247Z,17.47
2018-12-27T07:33:30.231Z,18.13
2018-12-27T07:35:59.197Z,18.50
2018-12-27T07:38:28.179Z,19.43
2018-12-27T07:40:57.281Z,18.90
2018-12-27T07:43:26.407Z,18.77
2018-12-27T07:45:55.380Z,20.13
2018-12-27T07:48:24.371Z,18.70
2018-12-27T07:50:53.335Z,17.27
2018-12-27T07:53:22.330Z,19.93
2018-12-27T07:55:51.295Z,17.70
2018-12-27T07:58:20.302Z,19.37
2018-12-27T08:00:49.263Z,17.83
2018-12-27T08:03:18.250Z,18.70
2018-12-27T08:05:47.220Z,19.43
2018-12-27T08:08:16.205Z,19.70
2018-12-27T08:10:45.196Z,19.30
2018-12-27T08:13:14.180Z,18.70
2018-12-27T08:15:43.147Z,18.67
2018-12-27T08:18:12.136Z,19.27
2018-12-27T08:20:41.113Z,19.83
2018-12-27T08:23:10.110Z,20.30
2018-12-27T08:25:39.091Z,20.93
2018-12-27T08:28:08.060Z,19.10
2018-12-27T08:30:37.043Z,19.03
2018-12-27T08:33:06.011Z,18.27
2018-12-27T08:35:34.994Z,19.33
2018-12-27T08:38:03.981Z,19.30
2018-12-27T08:40:32.950Z,20.57
2018-12-27T08:43:01.933Z,18.20
2018-12-27T08:45:30.906Z,19.13
2018-12-27T08:47:59.872Z,20.27
2018-12-27T08:50:28.860Z,20.67
2018-12-27T08:52:57.836Z,18.77
2018-12-27T08:55:26.824Z,22.97
2018-12-27T08:57:55.801Z,20.27
2018-12-27T09:00:24.789Z,20.80
2018-12-27T09:02:53.765Z,18.77
2018-12-27T09:05:22.747Z,19.77
2018-12-27T09:07:51.722Z,19.47
2018-12-27T09:10:20.712Z,20.87
2018-12-27T09:12:49.668Z,19.43
2018-12-27T09:15:18.647Z,20.13
2018-12-27T09:17:47.631Z,18.90
2018-12-27T09:20:16.623Z,19.60
2018-12-27T09:22:45.617Z,19.30
2018-12-27T09:25:14.574Z,21.23
2018-12-27T09:27:43.543Z,22.00
2018-12-27T09:30:12.531Z,20.23
2018-12-27T09:32:41.656Z,21.17
2018-12-27T09:35:10.634Z,21.10
2018-12-27T09:37:39.609Z,20.43
2018-12-27T09:40:08.587Z,21.33
2018-12-27T09:42:37.554Z,21.27
2018-12-27T09:45:07.974Z,19.60
2018-12-27T09:47:36.940Z,21.07
2018-12-27T09:50:05.932Z,21.63
2018-12-27T09:52:34.903Z,20.40
2018-12-27T09:55:04.551Z,21.43
2018-12-27T09:57:33.530Z,23.50
2018-12-27T10:00:02.594Z,20.70
2018-12-27T10:02:31.550Z,22.93
2018-12-27T10:05:00.541Z,24.80
2018-12-27T10:07:29.511Z,21.20
2018-12-27T10:09:58.506Z,21.70
2018-12-27T10:12:27.474Z,24.83
2018-12-27T10:14:56.459Z,23.53
2018-12-27T10:17:25.426Z,20.77
2018-12-27T10:19:54.404Z,21.43
2018-12-27T10:22:23.374Z,21.07
2018-12-27T10:24:52.364Z,21.60
2018-12-27T10:27:21.319Z,20.40
2018-12-27T10:29:50.320Z,21.03
2018-12-27T10:32:19.291Z,22.50
2018-12-27T10:34:48.286Z,19.73
2018-12-27T10:37:17.257Z,20.60
2018-12-27T10:39:46.226Z,21.80
2018-12-27T10:42:15.205Z,19.77
2018-12-27T10:44:44.191Z,20.30
2018-12-27T10:47:13.210Z,21.57
2018-12-27T10:49:42.196Z,20.03
2018-12-27T10:52:11.198Z,21.03
2018-12-27T10:54:40.496Z,21.97
2018-12-27T10:57:09.534Z,21.13
2018-12-27T10:59:38.504Z,20.27
2018-12-27T11:02:07.582Z,21.67
2018-12-27T11:04:36.549Z,20.50
2018-12-27T11:07:05.518Z,20.83
2018-12-27T11:09:34.508Z,21.67
2018-12-27T11:12:03.513Z,20.13
2018-12-27T11:14:32.466Z,21.50
2018-12-27T11:17:01.454Z,21.17
2018-12-27T11:19:30.414Z,22.73
2018-12-27T11:21:59.395Z,21.53
2018-12-27T11:24:28.371Z,22.90
2018-12-27T11:26:57.343Z,20.50
2018-12-27T11:29:26.315Z,20.63
2018-12-27T11:31:55.319Z,21.37
2018-12-27T11:34:24.281Z,21.63
2018-12-27T11:36:53.282Z,20.10
2018-12-27T11:39:22.252Z,22.37
2018-12-27T11:41:51.211Z,21.33
2018-12-27T11:44:20.208Z,23.10
2018-12-27T11:46:49.188Z,22.27
2018-12-27T11:49:18.159Z,23.43
2018-12-27T11:51:47.143Z,22.13
2018-12-27T11:54:16.125Z,22.63
2018-12-27T11:56:45.105Z,22.90
2018-12-27T11:59:14.070Z,22.57
2018-12-27T12:01:43.055Z,22.27
2018-12-27T12:04:12.031Z,20.73
2018-12-27T12:06:41.085Z,21.00
2018-12-27T12:09:10.048Z,22.67
2018-12-27T12:11:39.043Z,22.13
2018-12-27T12:14:08.025Z,22.13
2018-12-27T12:16:37.087Z,22.60
2018-12-27T12:19:06.075Z,21.53
2018-12-27T12:21:35.055Z,22.00
2018-12-27T12:24:04.106Z,23.20
2018-12-27T12:26:33.064Z,22.73
2018-12-27T12:29:02.022Z,23.13
2018-12-27T12:31:31.006Z,24.87
2018-12-27T12:34:00.038Z,23.60
2018-12-27T12:36:29.086Z,23.23
2018-12-27T12:38:58.052Z,21.23
2018-12-27T12:41:27.046Z,23.57
2018-12-27T12:43:55.998Z,23.33
2018-12-27T12:46:24.988Z,22.57
2018-12-27T12:48:53.980Z,23.27
2018-12-27T12:51:23.248Z,22.33
2018-12-27T12:53:52.436Z,23.23
2018-12-27T12:56:21.415Z,22.57
2018-12-27T12:58:50.386Z,21.87
2018-12-27T13:01:19.375Z,22.10
2018-12-27T13:03:48.382Z,23.13
2018-12-27T13:06:18.061Z,21.87
2018-12-27T13:08:47.220Z,23.30
2018-12-27T13:11:16.192Z,22.73
2018-12-27T13:13:45.149Z,22.47
2018-12-27T13:16:14.123Z,23.57
2018-12-27T13:18:47.261Z,23.87
2018-12-27T13:21:13.799Z,22.93
2018-12-27T13:23:42.803Z,22.40
2018-12-27T13:26:11.770Z,21.87
2018-12-27T13:28:40.763Z,22.90
2018-12-27T13:31:09.719Z,21.97
2018-12-27T13:33:38.703Z,23.47
2018-12-27T13:36:07.666Z,21.83
2018-12-27T13:38:36.662Z,21.97
2018-12-27T13:41:05.619Z,23.00
2018-12-27T13:43:34.603Z,23.47
2018-12-27T13:46:03.579Z,23.80
2018-12-27T13:48:32.562Z,23.43
2018-12-27T13:51:01.531Z,22.40
2018-12-27T13:53:30.526Z,22.70
2018-12-27T13:55:59.518Z,22.27
2018-12-27T13:58:28.474Z,23.40
2018-12-27T14:00:58.148Z,21.97
2018-12-27T14:03:27.319Z,22.60
2018-12-27T14:05:57.274Z,25.50
2018-12-27T14:08:26.260Z,21.53
2018-12-27T14:10:55.292Z,23.73
2018-12-27T14:13:26.828Z,23.93
2018-12-27T14:15:55.832Z,23.13
2018-12-27T14:18:24.796Z,23.83
2018-12-27T14:20:53.791Z,23.87
2018-12-27T14:23:22.755Z,23.20
2018-12-27T14:25:51.754Z,23.60
2018-12-27T14:28:20.735Z,23.03
2018-12-27T14:30:49.740Z,23.40
2018-12-27T14:33:18.726Z,23.03
2018-12-27T14:35:47.721Z,21.93
2018-12-27T14:38:16.694Z,21.50
2018-12-27T14:40:45.697Z,21.90
2018-12-27T14:43:14.669Z,22.83
2018-12-27T14:45:43.657Z,24.13
2018-12-27T14:48:12.623Z,23.57
2018-12-27T14:50:41.598Z,23.77
2018-12-27T14:53:10.652Z,24.90
2018-12-27T14:55:39.651Z,23.00
2018-12-27T14:58:08.622Z,23.33
2018-12-27T15:00:40.542Z,24.37
2018-12-27T15:03:09.519Z,23.60
2018-12-27T15:05:38.519Z,22.70
2018-12-27T15:08:07.486Z,24.50
2018-12-27T15:10:36.450Z,22.77
2018-12-27T15:13:05.431Z,21.23
2018-12-27T15:15:34.418Z,21.30
2018-12-27T15:18:03.410Z,22.67
2018-12-27T15:20:32.383Z,20.83
2018-12-27T15:23:01.439Z,19.67
2018-12-27T15:25:30.399Z,20.87
2018-12-27T15:27:59.380Z,20.33
2018-12-27T15:30:28.352Z,19.23
2018-12-27T15:32:57.306Z,19.60
2018-12-27T15:35:26.380Z,20.97
2018-12-27T15:37:55.434Z,20.40
2018-12-27T15:40:24.428Z,22.00
2018-12-27T15:42:53.398Z,20.03
2018-12-27T15:45:22.456Z,19.23
2018-12-27T15:47:51.450Z,19.30
2018-12-27T15:50:20.427Z,19.57
2018-12-27T15:52:49.394Z,19.97
2018-12-27T15:55:18.379Z,20.20
2018-12-27T15:57:47.348Z,19.07
2018-12-27T16:00:16.391Z,19.80
2018-12-27T16:02:45.349Z,20.73
2018-12-27T16:05:14.350Z,19.50
2018-12-27T16:07:43.326Z,20.07
2018-12-27T16:10:12.321Z,21.03
2018-12-27T16:12:41.293Z,21.13
2018-12-27T16:15:10.283Z,23.37
2018-12-27T16:17:39.242Z,23.43
2018-12-27T16:20:08.413Z,21.63
2018-12-27T16:22:37.383Z,24.93
2018-12-27T16:25:06.379Z,22.40
2018-12-27T16:27:35.370Z,25.97
2018-12-27T16:30:05.589Z,21.63
2018-12-27T16:32:34.570Z,22.90
2018-12-27T16:35:03.930Z,20.77
2018-12-27T16:37:32.899Z,20.40
2018-12-27T16:40:01.974Z,21.40
2018-12-27T16:42:30.944Z,21.40
2018-12-27T16:44:59.931Z,19.73
2018-12-27T16:47:28.907Z,21.73
2018-12-27T16:49:57.895Z,21.33
2018-12-27T16:52:26.869Z,22.80
2018-12-27T16:54:55.843Z,21.30
2018-12-27T16:57:24.821Z,20.70
2018-12-27T16:59:53.823Z,22.50
2018-12-27T17:02:22.782Z,21.07
2018-12-27T17:04:51.767Z,20.80
2018-12-27T17:07:20.762Z,19.93
2018-12-27T17:09:49.744Z,21.80
2018-12-27T17:12:18.715Z,20.13
2018-12-27T17:14:47.722Z,21.53
2018-12-27T17:17:16.687Z,21.30
2018-12-27T17:19:45.672Z,21.00
2018-12-27T17:22:14.633Z,19.03
2018-12-27T17:24:43.651Z,21.00
2018-12-27T17:27:12.620Z,20.33
2018-12-27T17:29:41.635Z,21.00
2018-12-27T17:32:10.613Z,22.20
2018-12-27T17:34:39.591Z,21.50
2018-12-27T17:37:08.572Z,19.50
2018-12-27T17:39:37.557Z,21.13
2018-12-27T17:42:06.519Z,20.87
2018-12-27T17:44:35.503Z,20.93
2018-12-27T17:47:04.467Z,21.17
2018-12-27T17:49:33.463Z,21.10
2018-12-27T17:52:02.428Z,20.60
2018-12-27T17:54:31.414Z,21.80
2018-12-27T17:57:00.379Z,24.07
2018-12-27T17:59:29.370Z,21.57
2018-12-27T18:01:58.343Z,21.40
2018-12-27T18:04:27.329Z,22.03
2018-12-27T18:06:56.299Z,21.27
2018-12-27T18:09:25.289Z,20.40
2018-12-27T18:11:54.366Z,20.10
2018-12-27T18:14:23.347Z,21.83
2018-12-27T18:16:52.331Z,20.57
2018-12-27T18:19:21.300Z,19.83
2018-12-27T18:21:50.288Z,20.13
2018-12-27T18:24:19.244Z,20.10
2018-12-27T18:26:48.331Z,19.53
2018-12-27T18:29:17.297Z,18.83
2018-12-27T18:31:46.291Z,20.10
2018-12-27T18:34:15.270Z,18.67
2018-12-27T18:36:44.248Z,20.23
2018-12-27T18:39:13.214Z,19.03
2018-12-27T18:41:42.199Z,19.67
2018-12-27T18:44:11.162Z,22.97
2018-12-27T18:46:40.291Z,19.63
2018-12-27T18:49:09.254Z,20.47
2018-12-27T18:51:38.226Z,20.63
2018-12-27T18:54:07.187Z,21.63
2018-12-27T18:56:36.187Z,18.77
2018-12-27T18:59:05.147Z,19.23
2018-12-27T19:01:34.146Z,19.67
2018-12-27T19:04:03.126Z,18.40
2018-12-27T19:06:32.225Z,20.17
2018-12-27T19:09:01.286Z,19.57
2018-12-27T19:12:06.441Z,19.43
2018-12-27T19:14:35.431Z,19.30
2018-12-27T19:17:04.946Z,20.53
2018-12-27T19:19:33.922Z,21.77
2018-12-27T19:22:03.040Z,19.37
2018-12-27T19:24:32.006Z,18.67
2018-12-27T19:27:01.010Z,21.13
2018-12-27T19:29:29.974Z,19.40
2018-12-27T19:31:59.046Z,19.77
2018-12-27T19:34:28.022Z,19.10
2018-12-27T19:36:57.028Z,19.23
2018-12-27T19:39:25.986Z,18.13
2018-12-27T19:41:54.961Z,21.20
2018-12-27T19:44:23.941Z,19.40
2018-12-27T19:46:52.951Z,19.00
2018-12-27T19:49:21.949Z,20.20
2018-12-27T19:51:50.947Z,20.40
2018-12-27T19:54:19.908Z,19.10
2018-12-27T19:56:48.972Z,20.23
2018-12-27T19:59:17.938Z,19.43
2018-12-27T20:01:46.926Z,20.30
2018-12-27T20:04:15.911Z,19.67
2018-12-27T20:06:44.889Z,20.57
2018-12-27T20:09:13.895Z,19.97
2018-12-27T20:11:42.953Z,20.73
2018-12-27T20:14:11.950Z,20.13
2018-12-27T20:16:40.934Z,23.33
2018-12-27T20:19:09.894Z,19.87
2018-12-27T20:21:38.873Z,20.33
2018-12-27T20:24:07.849Z,22.47
2018-12-27T20:26:36.826Z,20.83
2018-12-27T20:29:05.826Z,22.10
2018-12-27T20:31:34.809Z,21.00
2018-12-27T20:34:03.792Z,20.23
2018-12-27T20:36:32.795Z,19.73
2018-12-27T20:39:01.756Z,19.77
2018-12-27T20:41:30.753Z,21.43
2018-12-27T20:43:59.725Z,22.23
2018-12-27T20:46:28.707Z,20.57
2018-12-27T20:48:57.687Z,21.50
2018-12-27T20:51:26.660Z,19.17
2018-12-27T20:53:55.650Z,19.77
2018-12-27T20:56:24.607Z,19.77
2018-12-27T20:58:53.592Z,19.20
2018-12-27T21:01:22.556Z,21.10
2018-12-27T21:03:51.551Z,20.07
2018-12-27T21:06:20.542Z,19.00
2018-12-27T21:08:49.539Z,19.53
2018-12-27T21:11:18.511Z,23.70
2018-12-27T21:13:47.526Z,20.20
2018-12-27T21:16:16.655Z,20.93
2018-12-27T21:18:45.646Z,20.37
2018-12-27T21:21:14.682Z,20.87
2018-12-27T21:23:43.673Z,21.63
2018-12-27T21:26:12.648Z,21.60
2018-12-27T21:28:41.647Z,22.07
2018-12-27T21:31:10.671Z,24.00
2018-12-27T21:33:39.676Z,22.97
2018-12-27T21:36:08.636Z,23.63
2018-12-27T21:38:37.642Z,22.07
2018-12-27T21:41:06.602Z,22.67
2018-12-27T21:43:35.630Z,23.93
2018-12-27T21:46:04.594Z,22.73
2018-12-27T21:48:33.595Z,21.00
2018-12-27T21:51:02.634Z,21.77
2018-12-27T21:53:31.611Z,21.03
2018-12-27T21:56:00.608Z,20.93
2018-12-27T21:58:29.601Z,23.87
2018-12-27T22:00:58.636Z,21.03
2018-12-27T22:03:27.678Z,22.43
2018-12-27T22:05:56.670Z,23.43
2018-12-27T22:08:28.680Z,22.87
2018-12-27T22:10:56.319Z,23.53
2018-12-27T22:13:25.290Z,25.80
2018-12-27T22:15:54.268Z,25.40
2018-12-27T22:18:23.259Z,23.83
2018-12-27T22:20:52.239Z,25.27
2018-12-27T22:23:21.214Z,25.00
2018-12-27T22:25:50.203Z,24.30
2018-12-27T22:28:19.194Z,24.20
2018-12-27T22:30:48.162Z,25.13
2018-12-27T22:33:17.165Z,23.90
2018-12-27T22:35:46.149Z,25.70
2018-12-27T22:38:15.146Z,25.20
2018-12-27T22:40:44.190Z,23.93
2018-12-27T22:43:13.187Z,26.47
2018-12-27T22:45:42.155Z,28.00
2018-12-27T22:48:11.150Z,25.33
2018-12-27T22:50:40.107Z,25.03
2018-12-27T22:53:09.099Z,26.90
2018-12-27T22:55:38.071Z,29.00
2018-12-27T22:58:07.043Z,25.10
2018-12-27T23:00:37.430Z,26.00
2018-12-27T23:03:06.419Z,27.17
2018-12-27T23:05:35.424Z,27.10
2018-12-27T23:08:04.400Z,26.03
2018-12-27T23:10:33.370Z,25.07
2018-12-27T23:13:02.370Z,25.90
2018-12-27T23:15:31.343Z,25.13
2018-12-27T23:18:00.346Z,26.07
2018-12-27T23:20:29.340Z,28.57
2018-12-27T23:22:58.338Z,26.63
2018-12-27T23:25:27.297Z,28.47
2018-12-27T23:27:56.286Z,28.33
2018-12-27T23:30:25.255Z,27.47
2018-12-27T23:32:54.258Z,27.03
2018-12-27T23:35:23.223Z,27.90
2018-12-27T23:37:52.209Z,28.60
2018-12-27T23:40:21.184Z,28.50
2018-12-27T23:42:50.157Z,28.97
2018-12-27T23:45:19.139Z,29.03
2018-12-27T23:47:48.187Z,27.83
2018-12-27T23:50:17.146Z,27.83
2018-12-27T23:52:46.148Z,29.07
2018-12-27T23:55:15.139Z,30.23
2018-12-27T23:57:44.110Z,27.73
